createdAt,value
2022-08-26T00:01:31.303Z,93836.16
2022-08-26T00:03:58.881Z,93829.63
2022-08-26T00:06:26.437Z,93828.09
2022-08-26T00:08:53.422Z,93826.25
2022-08-26T00:11:26.714Z,93825.00
2022-08-26T00:13:54.913Z,93824.28
2022-08-26T00:16:23.853Z,93835.00
2022-08-26T00:18:51.406Z,93823.34
2022-08-26T00:21:18.556Z,93824.44
2022-08-26T00:23:46.070Z,93828.84
2022-08-26T00:26:14.282Z,93826.03
2022-08-26T00:28:41.352Z,93823.22
2022-08-26T00:31:11.099Z,93819.97
2022-08-26T00:33:41.051Z,93819.75
2022-08-26T00:36:09.165Z,93816.81
2022-08-26T00:38:47.146Z,93822.38
2022-08-26T00:41:14.010Z,93823.78
2022-08-26T00:43:47.593Z,93816.06
2022-08-26T00:46:23.699Z,93821.50
2022-08-26T00:48:53.993Z,93819.31
2022-08-26T00:51:24.826Z,93826.97
2022-08-26T00:54:04.021Z,93829.69
2022-08-26T00:56:38.015Z,93824.75
2022-08-26T00:59:11.890Z,93827.94
2022-08-26T01:01:41.343Z,93827.94
2022-08-26T01:04:09.733Z,93827.63
2022-08-26T01:06:36.583Z,93819.53
2022-08-26T01:09:04.014Z,93820.09
2022-08-26T01:11:32.185Z,93818.22
2022-08-26T01:14:02.105Z,93812.97
2022-08-26T01:16:30.294Z,93817.59
2022-08-26T01:19:01.740Z,93812.03
2022-08-26T01:21:44.016Z,93808.97
2022-08-26T01:24:12.493Z,93816.16
2022-08-26T01:26:42.604Z,93805.47
2022-08-26T01:29:13.309Z,93813.53
2022-08-26T01:31:55.440Z,93808.31
2022-08-26T01:34:26.012Z,93814.88
2022-08-26T01:36:58.747Z,93807.31
2022-08-26T01:39:25.440Z,93807.22
2022-08-26T01:41:56.826Z,93802.19
2022-08-26T01:44:29.241Z,93804.59
2022-08-26T01:46:57.923Z,93810.81
2022-08-26T01:49:26.731Z,93804.59
2022-08-26T01:51:56.234Z,93814.94
2022-08-26T01:54:25.568Z,93806.56
2022-08-26T01:56:54.357Z,93807.13
2022-08-26T01:59:23.715Z,93803.06
2022-08-26T02:01:51.266Z,93801.44
2022-08-26T02:04:33.566Z,93804.28
2022-08-26T02:07:04.125Z,93804.28
2022-08-26T02:09:31.157Z,93804.81
2022-08-26T02:12:01.503Z,93807.09
2022-08-26T02:14:36.344Z,93802.72
2022-08-26T02:17:11.224Z,93800.88
2022-08-26T02:19:41.701Z,93799.78
2022-08-26T02:22:15.011Z,93800.31
2022-08-26T02:24:52.818Z,93801.63
2022-08-26T02:27:33.113Z,93800.97
2022-08-26T02:30:09.195Z,93804.16
2022-08-26T02:32:37.175Z,93796.84
2022-08-26T02:35:08.229Z,93802.19
2022-08-26T02:37:35.263Z,93802.59
2022-08-26T02:40:04.075Z,93801.50
2022-08-26T02:42:30.967Z,93806.25
2022-08-26T02:44:57.816Z,93809.75
2022-08-26T02:47:25.566Z,93806.63
2022-08-26T02:49:55.981Z,93803.38
2022-08-26T02:52:22.772Z,93810.63
2022-08-26T02:54:49.770Z,93811.13
2022-08-26T02:57:16.812Z,93805.88
2022-08-26T02:59:43.915Z,93802.66
2022-08-26T03:02:11.360Z,93814.72
2022-08-26T03:04:39.364Z,93815.00
2022-08-26T03:07:06.868Z,93820.81
2022-08-26T03:09:33.891Z,93814.69
2022-08-26T03:12:01.339Z,93815.09
2022-08-26T03:14:29.831Z,93817.09
2022-08-26T03:16:56.538Z,93812.47
2022-08-26T03:19:25.154Z,93816.59
2022-08-26T03:21:57.711Z,93816.22
2022-08-26T03:24:25.585Z,93811.06
2022-08-26T03:26:52.846Z,93816.91
2022-08-26T03:29:39.558Z,93815.63
2022-08-26T03:32:06.499Z,93821.72
2022-08-26T03:34:33.464Z,93819.19
2022-08-26T03:37:00.221Z,93816.59
2022-08-26T03:39:26.938Z,93812.13
2022-08-26T03:41:55.374Z,93812.69
2022-08-26T03:44:22.162Z,93808.91
2022-08-26T03:46:49.874Z,93811.63
2022-08-26T03:49:16.663Z,93810.94
2022-08-26T03:51:43.380Z,93805.53
2022-08-26T03:54:11.523Z,93811.56
2022-08-26T03:56:38.547Z,93816.38
2022-08-26T03:59:07.625Z,93809.66
2022-08-26T04:01:35.524Z,93807.38
2022-08-26T04:04:03.281Z,93807.75
2022-08-26T04:06:36.556Z,93815.47
2022-08-26T04:09:09.161Z,93810.88
2022-08-26T04:11:38.663Z,93811.44
2022-08-26T04:14:09.565Z,93804.06
2022-08-26T04:16:37.109Z,93809.63
2022-08-26T04:19:04.355Z,93806.44
2022-08-26T04:21:31.333Z,93805.09
2022-08-26T04:23:58.326Z,93806.94
2022-08-26T04:26:26.200Z,93806.00
2022-08-26T04:28:55.178Z,93809.03
2022-08-26T04:31:22.729Z,93810.38
2022-08-26T04:33:50.835Z,93805.50
2022-08-26T04:36:20.261Z,93806.53
2022-08-26T04:38:47.927Z,93801.41
2022-08-26T04:41:15.446Z,93808.69
2022-08-26T04:43:44.913Z,93807.97
2022-08-26T04:46:13.811Z,93809.16
2022-08-26T04:48:41.240Z,93802.63
2022-08-26T04:51:09.918Z,93811.47
2022-08-26T04:53:37.735Z,93807.53
2022-08-26T04:56:04.815Z,93809.41
2022-08-26T04:58:32.519Z,93810.28
2022-08-26T05:00:59.691Z,93802.72
2022-08-26T05:03:30.512Z,93811.91
2022-08-26T05:05:58.269Z,93804.59
2022-08-26T05:08:25.683Z,93806.88
2022-08-26T05:10:56.536Z,93808.97
2022-08-26T05:13:26.532Z,93816.97
2022-08-26T05:15:54.450Z,93807.53
2022-08-26T05:18:24.360Z,93817.16
2022-08-26T05:20:54.837Z,93822.88
2022-08-26T05:23:23.431Z,93810.59
2022-08-26T05:25:55.788Z,93821.84
2022-08-26T05:28:25.410Z,93818.00
2022-08-26T05:30:53.447Z,93822.75
2022-08-26T05:33:20.551Z,93817.06
2022-08-26T05:35:47.386Z,93829.50
2022-08-26T05:38:16.782Z,93822.97
2022-08-26T05:40:46.586Z,93830.69
2022-08-26T05:43:14.086Z,93830.25
2022-08-26T05:45:46.610Z,93833.09
2022-08-26T05:48:16.149Z,93824.63
2022-08-26T05:50:49.370Z,93829.56
2022-08-26T05:53:18.854Z,93827.13
2022-08-26T05:55:52.063Z,93821.34
2022-08-26T05:58:21.352Z,93821.66
2022-08-26T06:01:22.107Z,93819.22
2022-08-26T06:03:52.441Z,93826.38
2022-08-26T06:06:27.682Z,93825.22
2022-08-26T06:08:59.188Z,93832.22
2022-08-26T06:11:28.070Z,93833.47
2022-08-26T06:14:00.023Z,93826.28
2022-08-26T06:16:28.925Z,93841.72
2022-08-26T06:18:55.977Z,93834.28
2022-08-26T06:21:24.243Z,93838.03
2022-08-26T06:24:13.422Z,93827.66
2022-08-26T06:26:42.792Z,93828.69
2022-08-26T06:29:10.259Z,93842.25
2022-08-26T06:31:37.378Z,93838.59
2022-08-26T06:34:10.587Z,93833.09
2022-08-26T06:36:39.434Z,93837.59
2022-08-26T06:39:09.493Z,93844.78
2022-08-26T06:41:41.422Z,93845.66
2022-08-26T06:44:10.200Z,93841.75
2022-08-26T06:46:37.580Z,93849.50
2022-08-26T06:49:05.600Z,93857.78
2022-08-26T06:51:35.256Z,93851.59
2022-08-26T06:54:06.032Z,93848.72
2022-08-26T06:56:43.021Z,93854.88
2022-08-26T06:59:11.599Z,93841.94
2022-08-26T07:01:44.838Z,93848.34
2022-08-26T07:04:15.711Z,93846.59
2022-08-26T07:06:52.590Z,93845.81
2022-08-26T07:09:24.871Z,93847.06
2022-08-26T07:11:56.441Z,93846.25
2022-08-26T07:14:25.058Z,93846.81
2022-08-26T07:16:53.169Z,93844.88
2022-08-26T07:19:31.208Z,93856.34
2022-08-26T07:22:03.945Z,93849.34
2022-08-26T07:24:32.605Z,93853.44
2022-08-26T07:27:05.470Z,93853.97
2022-08-26T07:29:33.307Z,93855.78
2022-08-26T07:32:00.063Z,93859.44
2022-08-26T07:34:27.318Z,93857.13
2022-08-26T07:36:55.368Z,93861.28
2022-08-26T07:39:22.807Z,93848.53
2022-08-26T07:41:49.866Z,93847.28
2022-08-26T07:44:16.763Z,93850.16
2022-08-26T07:46:44.063Z,93851.44
2022-08-26T07:49:12.322Z,93849.63
2022-08-26T07:51:39.794Z,93848.34
2022-08-26T07:54:07.334Z,93857.75
2022-08-26T07:56:34.134Z,93856.66
2022-08-26T07:59:00.895Z,93855.38
2022-08-26T08:01:29.715Z,93855.75
2022-08-26T08:03:57.774Z,93853.44
2022-08-26T08:06:28.170Z,93855.88
2022-08-26T08:08:56.235Z,93860.91
2022-08-26T08:11:24.286Z,93860.56
2022-08-26T08:13:56.413Z,93862.84
2022-08-26T08:16:28.425Z,93857.00
2022-08-26T08:18:59.359Z,93856.00
2022-08-26T08:21:27.672Z,93852.75
2022-08-26T08:23:57.634Z,93852.41
2022-08-26T08:26:25.735Z,93857.19
2022-08-26T08:28:56.810Z,93853.84
2022-08-26T08:34:16.933Z,93851.25
2022-08-26T08:36:46.387Z,93852.16
2022-08-26T08:39:14.050Z,93856.38
2022-08-26T08:41:58.990Z,93851.72
2022-08-26T08:47:18.533Z,93839.47
2022-08-26T08:49:47.515Z,93842.13
2022-08-26T08:52:32.819Z,93836.63
2022-08-26T08:54:59.609Z,93841.03
2022-08-26T08:58:02.054Z,93838.16
2022-08-26T09:00:39.678Z,93829.63
2022-08-26T09:03:56.388Z,93828.03
2022-08-26T09:06:25.508Z,93828.72
2022-08-26T09:08:56.422Z,93825.53
2022-08-26T09:11:23.511Z,93827.09
2022-08-26T09:13:55.364Z,93824.75
2022-08-26T09:16:43.992Z,93827.19
2022-08-26T09:19:29.468Z,93813.13
2022-08-26T09:21:58.273Z,93822.94
2022-08-26T09:24:28.631Z,93812.19
2022-08-26T09:26:58.283Z,93809.00
2022-08-26T09:29:32.121Z,93807.53
2022-08-26T09:32:25.386Z,93811.34
2022-08-26T09:34:54.791Z,93804.31
2022-08-26T09:37:40.485Z,93811.03
2022-08-26T09:40:16.898Z,93805.31
2022-08-26T09:42:43.891Z,93814.00
2022-08-26T09:45:12.828Z,93803.75
2022-08-26T09:47:53.856Z,93818.66
2022-08-26T09:50:29.385Z,93809.72
2022-08-26T09:53:14.905Z,93813.56
2022-08-26T09:55:47.641Z,93821.78
2022-08-26T09:58:32.613Z,93811.31
2022-08-26T10:01:01.907Z,93807.97
2022-08-26T10:03:33.158Z,93813.00
2022-08-26T10:06:06.662Z,93807.06
2022-08-26T10:08:42.595Z,93800.31
2022-08-26T10:11:24.702Z,93807.22
2022-08-26T10:13:56.540Z,93806.63
2022-08-26T10:16:48.612Z,93799.38
2022-08-26T10:19:56.134Z,93807.34
2022-08-26T10:22:42.437Z,93788.59
2022-08-26T10:25:16.049Z,93798.16
2022-08-26T10:27:54.995Z,93794.47
2022-08-26T10:30:27.702Z,93800.19
2022-08-26T10:33:09.644Z,93801.66
2022-08-26T10:35:44.655Z,93790.50
2022-08-26T10:38:17.021Z,93793.44
2022-08-26T10:40:52.937Z,93796.06
2022-08-26T10:43:26.735Z,93792.25
2022-08-26T10:45:59.245Z,93792.31
2022-08-26T10:49:09.867Z,93790.13
2022-08-26T10:51:45.687Z,93793.59
2022-08-26T10:54:22.664Z,93782.75
2022-08-26T10:56:57.674Z,93785.13
2022-08-26T10:59:31.959Z,93774.25
2022-08-26T11:02:10.758Z,93775.53
2022-08-26T11:04:38.450Z,93778.81
2022-08-26T11:07:29.880Z,93780.00
2022-08-26T11:10:17.640Z,93771.53
2022-08-26T11:12:49.112Z,93773.63
2022-08-26T11:15:24.374Z,93769.00
2022-08-26T11:17:55.828Z,93785.13
2022-08-26T11:20:22.397Z,93777.34
2022-08-26T11:22:52.831Z,93775.09
2022-08-26T11:25:23.528Z,93771.78
2022-08-26T11:27:56.751Z,93766.88
2022-08-26T11:30:24.166Z,93780.41
2022-08-26T11:32:55.297Z,93773.84
2022-08-26T11:35:23.347Z,93769.72
2022-08-26T11:38:15.642Z,93777.25
2022-08-26T11:40:42.503Z,93765.47
2022-08-26T11:43:19.723Z,93766.84
2022-08-26T11:45:57.408Z,93766.66
2022-08-26T11:48:27.064Z,93766.81
2022-08-26T11:51:09.325Z,93755.97
2022-08-26T11:53:42.570Z,93760.47
2022-08-26T11:56:12.368Z,93748.25
2022-08-26T11:58:43.772Z,93755.41
2022-08-26T12:01:13.368Z,93755.94
2022-08-26T12:03:50.196Z,93743.19
2022-08-26T12:06:44.964Z,93742.22
2022-08-26T12:09:21.074Z,93750.69
2022-08-26T12:11:47.952Z,93746.00
2022-08-26T12:14:25.035Z,93743.63
2022-08-26T12:16:54.184Z,93735.91
2022-08-26T12:19:28.452Z,93729.25
2022-08-26T12:22:07.460Z,93723.78
2022-08-26T12:24:34.388Z,93725.41
2022-08-26T12:27:25.479Z,93714.22
2022-08-26T12:30:21.567Z,93711.88
2022-08-26T12:33:22.387Z,93719.94
2022-08-26T12:35:54.401Z,93716.38
2022-08-26T12:38:24.982Z,93716.63
2022-08-26T12:40:51.790Z,93714.00
2022-08-26T12:43:40.375Z,93717.31
2022-08-26T12:46:13.628Z,93717.56
2022-08-26T12:48:44.242Z,93720.50
2022-08-26T12:51:24.236Z,93726.88
2022-08-26T12:53:51.719Z,93716.44
2022-08-26T12:56:25.270Z,93717.25
2022-08-26T12:59:24.425Z,93710.75
2022-08-26T13:01:52.308Z,93722.34
2022-08-26T13:04:32.089Z,93712.44
2022-08-26T13:07:25.444Z,93714.50
2022-08-26T13:09:55.007Z,93710.38
2022-08-26T13:12:41.125Z,93697.38
2022-08-26T13:15:08.209Z,93705.84
2022-08-26T13:17:36.017Z,93697.59
2022-08-26T13:20:04.320Z,93688.44
2022-08-26T13:22:31.711Z,93702.25
2022-08-26T13:24:58.527Z,93697.69
2022-08-26T13:27:27.272Z,93694.44
2022-08-26T13:29:54.995Z,93693.38
2022-08-26T13:32:27.243Z,93685.06
2022-08-26T13:34:56.438Z,93686.34
2022-08-26T13:37:24.327Z,93692.34
2022-08-26T13:40:01.726Z,93680.31
2022-08-26T13:42:29.370Z,93693.00
2022-08-26T13:44:58.163Z,93683.94
2022-08-26T13:47:26.091Z,93680.69
2022-08-26T13:49:54.795Z,93685.50
2022-08-26T13:52:25.544Z,93683.63
2022-08-26T13:54:57.144Z,93696.94
2022-08-26T13:57:24.734Z,93682.38
2022-08-26T13:59:53.965Z,93679.28
2022-08-26T14:02:20.610Z,93687.25
2022-08-26T14:04:47.262Z,93678.16
2022-08-26T14:07:14.159Z,93690.34
2022-08-26T14:09:40.823Z,93680.69
2022-08-26T14:12:07.768Z,93689.13
2022-08-26T14:14:34.410Z,93685.59
2022-08-26T14:17:01.514Z,93676.38
2022-08-26T14:19:30.329Z,93683.44
2022-08-26T14:21:57.364Z,93679.25
2022-08-26T14:24:24.037Z,93681.50
2022-08-26T14:26:50.725Z,93680.63
2022-08-26T14:29:17.598Z,93681.47
2022-08-26T14:31:44.810Z,93680.50
2022-08-26T14:34:13.913Z,93687.41
2022-08-26T14:36:40.608Z,93683.97
2022-08-26T14:39:12.739Z,93675.69
2022-08-26T14:41:54.562Z,93682.91
2022-08-26T14:44:26.074Z,93681.13
2022-08-26T14:46:53.458Z,93677.28
2022-08-26T14:49:22.919Z,93686.13
2022-08-26T14:51:50.075Z,93682.84
2022-08-26T14:54:18.307Z,93694.25
2022-08-26T14:56:48.823Z,93689.56
2022-08-26T14:59:18.333Z,93685.59
2022-08-26T15:01:45.506Z,93685.34
2022-08-26T15:04:12.938Z,93680.16
2022-08-26T15:06:40.613Z,93676.03
2022-08-26T15:09:07.496Z,93689.50
2022-08-26T15:11:34.422Z,93685.88
2022-08-26T15:14:01.164Z,93682.53
2022-08-26T15:16:29.116Z,93688.09
2022-08-26T15:18:56.580Z,93682.97
2022-08-26T15:21:23.889Z,93684.66
2022-08-26T15:23:51.497Z,93684.31
2022-08-26T15:26:18.637Z,93682.22
2022-08-26T15:28:45.567Z,93689.59
2022-08-26T15:31:12.476Z,93686.75
2022-08-26T15:33:40.385Z,93685.81
2022-08-26T15:36:08.866Z,93687.44
2022-08-26T15:38:39.432Z,93689.66
2022-08-26T15:41:08.628Z,93691.59
2022-08-26T15:43:36.934Z,93686.84
2022-08-26T15:46:04.527Z,93680.03
2022-08-26T15:48:31.481Z,93678.69
2022-08-26T15:51:01.502Z,93677.72
2022-08-26T15:53:30.565Z,93677.28
2022-08-26T15:55:58.648Z,93677.22
2022-08-26T15:58:27.078Z,93674.53
2022-08-26T16:00:57.490Z,93687.63
2022-08-26T16:03:24.468Z,93684.06
2022-08-26T16:05:51.309Z,93680.44
2022-08-26T16:08:18.099Z,93679.22
2022-08-26T16:10:50.265Z,93681.50
2022-08-26T16:13:19.398Z,93676.38
2022-08-26T16:15:49.558Z,93684.06
2022-08-26T16:18:17.008Z,93678.94
2022-08-26T16:20:55.185Z,93680.41
2022-08-26T16:23:36.587Z,93675.13
2022-08-26T16:26:10.914Z,93673.91
2022-08-26T16:28:38.665Z,93679.75
2022-08-26T16:31:06.427Z,93676.28
2022-08-26T16:33:33.113Z,93670.78
2022-08-26T16:35:59.846Z,93683.19
2022-08-26T16:38:26.827Z,93677.53
2022-08-26T16:40:53.502Z,93681.88
2022-08-26T16:43:20.094Z,93676.59
2022-08-26T16:45:46.774Z,93682.56
2022-08-26T16:48:13.576Z,93680.00
2022-08-26T16:50:43.191Z,93684.91
2022-08-26T16:55:48.332Z,93678.13
2022-08-26T16:58:15.183Z,93680.25
2022-08-26T17:00:42.056Z,93684.31
2022-08-26T17:03:09.118Z,93685.88
2022-08-26T17:05:36.354Z,93686.22
2022-08-26T17:08:04.563Z,93694.81
2022-08-26T17:10:31.819Z,93690.69
2022-08-26T17:12:58.760Z,93695.75
2022-08-26T17:15:25.909Z,93703.06
2022-08-26T17:17:53.708Z,93703.59
2022-08-26T17:20:22.404Z,93693.22
2022-08-26T17:22:51.476Z,93704.06
2022-08-26T17:25:25.834Z,93706.22
2022-08-26T17:27:53.082Z,93701.31
2022-08-26T17:30:21.153Z,93706.50
2022-08-26T17:32:48.391Z,93701.81
2022-08-26T17:35:16.070Z,93702.09
2022-08-26T17:37:43.332Z,93712.16
2022-08-26T17:40:13.541Z,93715.53
2022-08-26T17:42:40.837Z,93715.06
2022-08-26T17:45:09.052Z,93713.69
2022-08-26T17:47:35.856Z,93717.06
2022-08-26T17:50:05.016Z,93723.00
2022-08-26T17:52:31.982Z,93724.34
2022-08-26T17:54:59.447Z,93720.84
2022-08-26T17:57:26.592Z,93723.28
2022-08-26T17:59:53.717Z,93724.19
2022-08-26T18:02:21.227Z,93720.22
2022-08-26T18:04:48.133Z,93721.44
2022-08-26T18:07:15.819Z,93718.25
2022-08-26T18:09:42.608Z,93719.59
2022-08-26T18:12:09.653Z,93726.31
2022-08-26T18:14:36.761Z,93731.47
2022-08-26T18:17:03.796Z,93729.66
2022-08-26T18:19:33.377Z,93727.06
2022-08-26T18:22:00.115Z,93726.91
2022-08-26T18:24:30.374Z,93732.41
2022-08-26T18:26:57.313Z,93733.91
2022-08-26T18:29:25.477Z,93733.13
2022-08-26T18:31:52.189Z,93738.25
2022-08-26T18:34:19.506Z,93736.28
2022-08-26T18:36:47.276Z,93736.41
2022-08-26T18:39:15.494Z,93742.59
2022-08-26T18:42:03.239Z,93744.03
2022-08-26T18:44:30.017Z,93749.03
2022-08-26T18:46:56.703Z,93751.00
2022-08-26T18:49:23.441Z,93754.13
2022-08-26T18:51:52.881Z,93757.06
2022-08-26T18:56:47.949Z,93748.69
2022-08-26T18:59:15.073Z,93746.09
2022-08-26T19:01:42.676Z,93741.97
2022-08-26T19:04:14.709Z,93744.50
2022-08-26T19:06:42.558Z,93751.09
2022-08-26T19:09:11.884Z,93747.16
2022-08-26T19:11:42.285Z,93753.41
2022-08-26T19:14:13.677Z,93752.66
2022-08-26T19:16:43.429Z,93754.88
2022-08-26T19:19:10.301Z,93753.31
2022-08-26T19:21:37.832Z,93755.03
2022-08-26T19:24:09.410Z,93754.84
2022-08-26T19:26:36.723Z,93755.47
2022-08-26T19:29:03.804Z,93759.25
2022-08-26T19:31:31.255Z,93756.44
2022-08-26T19:33:59.044Z,93760.09
2022-08-26T19:36:26.877Z,93755.53
2022-08-26T19:38:54.514Z,93754.03
2022-08-26T19:41:34.129Z,93755.66
2022-08-26T19:44:13.141Z,93763.44
2022-08-26T19:46:40.164Z,93761.94
2022-08-26T19:49:07.656Z,93769.94
2022-08-26T19:51:35.219Z,93766.44
2022-08-26T19:54:02.256Z,93766.28
2022-08-26T19:56:29.351Z,93764.94
2022-08-26T19:58:56.442Z,93769.50
2022-08-26T20:01:24.546Z,93756.16
2022-08-26T20:03:51.477Z,93759.84
2022-08-26T20:06:20.123Z,93761.09
2022-08-26T20:08:47.390Z,93761.75
2022-08-26T20:11:18.719Z,93767.06
2022-08-26T20:13:47.061Z,93766.91
2022-08-26T20:16:14.932Z,93767.22
2022-08-26T20:19:09.353Z,93763.41
2022-08-26T20:21:38.919Z,93770.06
2022-08-26T20:24:11.876Z,93766.72
2022-08-26T20:26:40.802Z,93770.25
2022-08-26T20:29:09.128Z,93768.63
2022-08-26T20:31:36.398Z,93767.09
2022-08-26T20:34:03.483Z,93757.19
2022-08-26T20:36:30.228Z,93755.81
2022-08-26T20:38:57.310Z,93760.78
2022-08-26T20:41:25.817Z,93765.69
2022-08-26T20:43:53.670Z,93765.56
2022-08-26T20:46:24.501Z,93759.09
2022-08-26T20:48:52.954Z,93770.56
2022-08-26T20:51:20.543Z,93763.00
2022-08-26T20:53:47.621Z,93761.63
2022-08-26T20:56:15.505Z,93771.16
2022-08-26T20:58:42.696Z,93770.75
2022-08-26T21:01:18.427Z,93780.28
2022-08-26T21:03:45.674Z,93780.22
2022-08-26T21:06:12.546Z,93785.25
2022-08-26T21:08:42.652Z,93780.81
2022-08-26T21:11:10.228Z,93776.78
2022-08-26T21:14:01.153Z,93777.44
2022-08-26T21:16:25.146Z,93779.94
2022-08-26T21:18:51.823Z,93768.78
2022-08-26T21:21:18.922Z,93780.50
2022-08-26T21:23:52.137Z,93778.31
2022-08-26T21:26:19.018Z,93791.81
2022-08-26T21:28:46.373Z,93790.72
2022-08-26T21:31:17.234Z,93789.63
2022-08-26T21:33:44.123Z,93784.78
2022-08-26T21:36:12.078Z,93778.13
2022-08-26T21:38:39.433Z,93783.69
2022-08-26T21:41:10.368Z,93781.31
2022-08-26T21:43:37.784Z,93793.28
2022-08-26T21:46:16.662Z,93784.34
2022-08-26T21:48:51.878Z,93790.72
2022-08-26T21:51:21.046Z,93792.81
2022-08-26T21:53:48.331Z,93796.56
2022-08-26T21:56:18.096Z,93802.09
2022-08-26T21:58:45.610Z,93803.06
2022-08-26T22:01:18.638Z,93794.00
2022-08-26T22:03:47.067Z,93794.44
2022-08-26T22:06:18.565Z,93792.59
2022-08-26T22:08:45.251Z,93798.16
2022-08-26T22:11:12.142Z,93791.06
2022-08-26T22:13:40.126Z,93796.09
2022-08-26T22:16:08.014Z,93803.81
2022-08-26T22:18:35.938Z,93800.69
2022-08-26T22:21:06.310Z,93802.31
2022-08-26T22:23:35.014Z,93803.84
2022-08-26T22:26:01.789Z,93795.31
2022-08-26T22:28:28.781Z,93797.59
2022-08-26T22:30:55.755Z,93795.66
2022-08-26T22:33:23.002Z,93797.28
2022-08-26T22:35:52.678Z,93794.66
2022-08-26T22:38:20.083Z,93788.56
2022-08-26T22:40:50.476Z,93792.81
2022-08-26T22:43:18.978Z,93801.78
2022-08-26T22:45:47.645Z,93797.94
2022-08-26T22:48:16.731Z,93798.38
2022-08-26T22:50:45.859Z,93805.25
2022-08-26T22:53:13.756Z,93803.41
2022-08-26T22:55:40.427Z,93805.25
2022-08-26T22:58:07.622Z,93799.25
2022-08-26T23:00:34.386Z,93798.50
2022-08-26T23:03:02.270Z,93799.13
2022-08-26T23:05:29.738Z,93795.00
2022-08-26T23:07:56.909Z,93795.22
2022-08-26T23:10:24.471Z,93790.63
2022-08-26T23:12:52.460Z,93791.50
2022-08-26T23:15:20.144Z,93785.81
2022-08-26T23:17:47.503Z,93791.72
2022-08-26T23:20:23.845Z,93790.72
2022-08-26T23:22:50.476Z,93792.97
2022-08-26T23:25:17.132Z,93791.53
2022-08-26T23:27:44.473Z,93790.31
2022-08-26T23:30:18.027Z,93786.09
2022-08-26T23:32:45.171Z,93788.72
2022-08-26T23:35:14.271Z,93791.84
2022-08-26T23:37:44.814Z,93794.50
2022-08-26T23:40:16.787Z,93793.00
2022-08-26T23:42:44.062Z,93797.31
2022-08-26T23:45:12.901Z,93796.81
2022-08-26T23:47:41.158Z,93797.06
2022-08-26T23:50:09.029Z,93803.91
2022-08-26T23:52:54.556Z,93797.25
2022-08-26T23:55:21.360Z,93801.13
2022-08-26T23:57:48.053Z,93803.06
